Time;durP1;ratioP1;P1;durP2;ratioP2;P2;SDS_P1;SDS_P2;PMS_P1;PMS_P2;Temp;Humidity;BMP_temperature;BMP_pressure;BME280_temperature;BME280_humidity;BME280_pressure;Samples;Min_cycle;Max_cycle;Signal;HPM_P1;HPM_P2
2021/05/14 04:24:24;;;;;;;1362.30;74.25;;;6.40;99.90;;;;;;5729675;23;20623;31
2021/05/14 07:28:44;;;;;;;34.60;22.83;;;7.20;99.90;;;;;;4974385;28;20434;-95
2021/05/14 08:12:15;;;;;;;11.30;9.07;;;7.80;99.90;;;;;;5262966;23;20414;-96
2021/05/14 08:18:51;;;;;;;12.93;8.85;;;7.70;99.90;;;;;;5086441;23;20431;-96
2021/05/14 08:22:10;;;;;;;9.85;7.80;;;7.70;99.90;;;;;;4972449;28;20426;-96
2021/05/14 08:25:07;;;;;;;9.30;7.95;;;7.60;99.90;;;;;;5156787;23;20421;-95
2021/05/14 09:28:21;;;;;;;4.97;2.27;;;9.30;99.90;;;;;;5471655;23;20771;-96
2021/05/14 09:51:18;;;;;;;2.90;1.40;;;10.80;99.90;;;;;;6023734;23;20385;-96
2021/05/14 12:39:27;;;;;;;2.15;0.80;;;15.60;99.90;;;;;;5088229;23;20416;31
2021/05/14 12:42:04;;;;;;;3.17;0.73;;;15.50;99.90;;;;;;5244358;23;20616;-96
2021/05/14 15:45:45;;;;;;;4.37;0.80;;;20.20;66.40;;;;;;5051202;23;20822;-96
2021/05/14 17:32:45;;;;;;;1.50;0.60;;;17.40;73.60;;;;;;6051206;23;21310;-94
2021/05/14 17:36:39;;;;;;;1.73;0.70;;;17.10;73.00;;;;;;4968752;28;21057;-94
2021/05/14 17:40:11;;;;;;;1.75;0.80;;;16.60;74.90;;;;;;4982367;28;20435;-95
2021/05/14 17:44:12;;;;;;;4.60;0.68;;;16.40;73.80;;;;;;4838035;29;20432;-96
2021/05/14 17:48:18;;;;;;;1.27;0.60;;;16.00;75.50;;;;;;4821836;29;20864;-94
2021/05/14 17:52:15;;;;;;;2.05;0.70;;;15.80;77.90;;;;;;4813860;29;20987;-96
2021/05/14 18:00:53;;;;;;;1.10;0.60;;;15.20;81.30;;;;;;5351395;23;20413;-96
2021/05/14 18:23:17;;;;;;;4.23;0.90;;;13.70;99.60;;;;;;4915769;29;20458;-96
2021/05/14 18:26:55;;;;;;;1.10;0.60;;;13.10;98.80;;;;;;4860586;29;20438;-96
2021/05/14 18:30:16;;;;;;;1.02;0.80;;;12.70;99.90;;;;;;4873049;29;20441;-96
2021/05/14 18:33:53;;;;;;;2.35;0.70;;;12.30;99.90;;;;;;4843987;29;20436;-95
2021/05/14 18:47:33;;;;;;;2.78;1.13;;;9.80;99.90;;;;;;5930380;23;20393;-96
2021/05/14 18:50:18;;;;;;;1.95;0.80;;;9.50;99.90;;;;;;5059261;23;20457;-96
2021/05/14 18:52:49;;;;;;;3.33;0.83;;;9.20;99.90;;;;;;4975953;28;20411;-96
2021/05/14 18:55:35;;;;;;;2.25;0.93;;;9.10;99.90;;;;;;4976968;28;20424;-96
2021/05/14 18:58:14;;;;;;;3.90;1.00;;;8.90;99.90;;;;;;4975768;28;20800;-96
2021/05/14 19:00:58;;;;;;;4.40;1.30;;;8.70;99.90;;;;;;4988044;28;20428;-95
2021/05/14 19:03:49;;;;;;;2.20;1.10;;;8.50;99.90;;;;;;4970783;28;20528;-96
2021/05/14 19:06:19;;;;;;;2.60;1.10;;;8.40;99.90;;;;;;4983635;28;20427;-96
2021/05/14 19:08:46;;;;;;;3.08;1.20;;;8.20;99.90;;;;;;4964413;28;20458;-96
2021/05/14 19:11:16;;;;;;;3.40;1.10;;;8.10;99.90;;;;;;4964590;28;20452;-96
2021/05/14 19:13:49;;;;;;;6.45;1.10;;;8.20;99.90;;;;;;4982841;28;20428;-96
2021/05/14 19:16:18;;;;;;;2.28;1.10;;;8.20;99.90;;;;;;4950798;28;20429;-96
2021/05/14 19:18:48;;;;;;;1.50;1.13;;;8.00;99.90;;;;;;4965469;28;20424;-95
2021/05/14 19:21:19;;;;;;;2.78;1.25;;;7.90;99.90;;;;;;4952243;28;20433;-96
2021/05/14 19:24:15;;;;;;;3.25;1.23;;;7.80;99.90;;;;;;4984303;28;20432;-96
2021/05/14 19:44:33;;;;;;;5.40;1.30;;;7.40;99.90;;;;;;4985708;28;20432;-95
2021/05/14 19:49:20;;;;;;;3.60;1.05;;;7.20;99.90;;;;;;4986703;28;20435;-96
2021/05/14 20:02:38;;;;;;;3.28;1.20;;;7.20;99.90;;;;;;6341136;22;20380;-96
2021/05/14 20:05:11;;;;;;;1.27;1.05;;;7.10;99.90;;;;;;6301297;22;20458;-96
2021/05/14 20:07:39;;;;;;;1.05;0.80;;;7.20;99.90;;;;;;6316308;22;20463;-95
2021/05/14 20:10:07;;;;;;;2.75;1.10;;;7.20;99.90;;;;;;6286798;22;20419;-96
2021/05/14 20:12:39;;;;;;;4.22;1.02;;;7.10;99.90;;;;;;6314984;22;20419;-96
2021/05/14 20:15:08;;;;;;;4.15;1.00;;;7.10;99.90;;;;;;6312476;22;20457;-95
2021/05/14 20:17:36;;;;;;;1.75;1.10;;;7.10;99.90;;;;;;6319917;22;20451;-96
2021/05/14 20:20:15;;;;;;;1.58;1.10;;;7.30;99.90;;;;;;6318895;22;20383;-96
2021/05/14 20:23:20;;;;;;;2.70;1.10;;;7.30;99.90;;;;;;6320750;22;20372;-96
2021/05/14 20:26:23;;;;;;;2.22;1.10;;;7.30;99.90;;;;;;6292791;22;20530;-96
2021/05/14 20:52:29;;;;;;;6.28;1.63;;;7.10;99.90;;;;;;6208655;23;20525;-96
2021/05/14 20:55:23;;;;;;;4.20;1.70;;;7.20;99.90;;;;;;6206159;23;20373;-96
2021/05/14 20:58:40;;;;;;;4.22;1.90;;;7.20;99.90;;;;;;6035724;23;20407;-96
2021/05/14 21:02:10;;;;;;;3.75;2.30;;;7.30;99.90;;;;;;6091601;23;20777;-96
2021/05/14 21:05:22;;;;;;;3.28;1.00;;;7.30;99.90;;;;;;6008495;23;20411;-96
2021/05/14 21:08:42;;;;;;;2.75;1.00;;;7.20;99.90;;;;;;5967812;24;20399;-96
2021/05/14 21:11:54;;;;;;;3.22;1.58;;;7.30;99.90;;;;;;5963775;24;20434;-96
2021/05/14 21:14:52;;;;;;;1.90;1.30;;;7.30;99.90;;;;;;5971608;24;20390;-96
2021/05/14 21:30:56;;;;;;;5.20;2.00;;;7.10;99.90;;;;;;6315840;22;20370;-96
2021/05/14 21:34:17;;;;;;;3.05;1.40;;;7.10;99.90;;;;;;6320047;22;20440;-96
2021/05/14 21:37:29;;;;;;;4.40;1.17;;;6.90;99.90;;;;;;6237419;22;20424;-96
2021/05/14 21:40:22;;;;;;;2.50;1.00;;;6.90;99.90;;;;;;6307547;22;20358;-96
2021/05/14 21:45:34;;;;;;;5.15;1.20;;;6.80;99.90;;;;;;6273421;22;20668;-95
2021/05/14 21:49:02;;;;;;;3.42;1.20;;;6.90;99.90;;;;;;6267990;22;20382;-96
2021/05/14 21:52:31;;;;;;;1.80;0.90;;;6.80;99.90;;;;;;6268343;22;20393;-96
2021/05/14 22:12:57;;;;;;;2.50;1.33;;;7.20;99.90;;;;;;6207285;22;20378;-96
2021/05/14 22:15:53;;;;;;;3.30;1.40;;;7.10;99.90;;;;;;6217690;23;20388;-96
2021/05/14 22:18:54;;;;;;;2.92;1.33;;;7.00;99.90;;;;;;6224003;23;20420;-96
2021/05/14 22:21:41;;;;;;;2.35;1.40;;;6.80;99.90;;;;;;6260048;23;20457;-96
2021/05/14 22:24:43;;;;;;;4.85;1.60;;;6.70;99.90;;;;;;6190139;22;20354;-96
2021/05/14 22:27:59;;;;;;;2.88;1.63;;;6.70;99.90;;;;;;6231012;23;20362;-96
2021/05/14 22:30:56;;;;;;;5.45;1.70;;;6.70;99.90;;;;;;6166240;23;20728;-96
2021/05/14 22:37:23;;;;;;;3.95;1.40;;;6.70;99.90;;;;;;6167132;23;20379;-96
2021/05/14 22:40:17;;;;;;;2.42;1.20;;;6.80;99.90;;;;;;6145136;23;20354;-96
2021/05/14 22:43:03;;;;;;;3.30;1.30;;;6.50;99.90;;;;;;6120029;23;20461;-96
2021/05/14 22:49:35;;;;;;;2.70;1.15;;;6.50;99.90;;;;;;6167393;23;20375;-96
2021/05/14 22:52:53;;;;;;;3.58;1.10;;;6.40;99.90;;;;;;6172964;23;20414;-96
2021/05/14 22:56:22;;;;;;;3.30;1.03;;;6.30;99.90;;;;;;6170565;23;20374;-96
2021/05/14 22:59:23;;;;;;;1.90;1.00;;;6.30;99.90;;;;;;6123285;23;20366;-96
2021/05/14 23:02:46;;;;;;;1.77;1.20;;;6.30;99.90;;;;;;6163857;23;20390;-96
2021/05/14 23:05:57;;;;;;;4.13;1.10;;;6.40;99.90;;;;;;6078110;23;20434;-96
2021/05/14 23:09:08;;;;;;;1.55;0.90;;;6.40;99.90;;;;;;6075969;23;20455;-95
2021/05/14 23:12:14;;;;;;;4.43;1.00;;;6.50;99.90;;;;;;6075175;23;20400;-96
2021/05/14 23:15:40;;;;;;;3.15;0.70;;;6.70;99.90;;;;;;6090844;23;20373;-96
2021/05/14 23:18:58;;;;;;;1.20;0.70;;;6.70;99.90;;;;;;6092030;23;20370;-96
2021/05/14 23:22:11;;;;;;;1.73;0.90;;;6.70;99.90;;;;;;6084190;23;20402;-96
2021/05/14 23:25:37;;;;;;;2.03;0.90;;;6.60;99.90;;;;;;6072246;23;20363;-96
2021/05/14 23:28:07;;;;;;;2.33;0.80;;;6.80;99.90;;;;;;6036314;23;20390;-96
2021/05/14 23:31:24;;;;;;;2.80;1.00;;;6.70;99.90;;;;;;6087008;23;20438;-96
2021/05/14 23:34:30;;;;;;;1.88;0.90;;;6.70;99.90;;;;;;6085343;23;20350;-96
2021/05/14 23:40:22;;;;;;;1.47;1.00;;;6.50;99.90;;;;;;6273797;22;20488;-94
2021/05/14 23:43:31;;;;;;;4.50;1.00;;;6.50;99.90;;;;;;6292620;22;20347;-95
2021/05/14 23:47:15;;;;;;;2.45;0.98;;;6.60;99.90;;;;;;6258180;22;20388;-94
